Time;durP1;ratioP1;P1;durP2;ratioP2;P2;SDS_P1;SDS_P2;PMS_P1;PMS_P2;Temp;Humidity;BMP_temperature;BMP_pressure;BME280_temperature;BME280_humidity;BME280_pressure;Samples;Min_cycle;Max_cycle;Signal;HPM_P1;HPM_P2
2021/12/05 00:24:18;;;;;;;12.73;7.57;;;;;;;8.11;77.88;99218.13;4877203;29;20095;-49
2021/12/05 00:26:48;;;;;;;12.18;7.40;;;;;;;7.96;78.61;99217.47;4883317;29;20497;-49
2021/12/05 00:45:02;;;;;;;12.55;7.72;;;;;;;7.67;81.03;99218.56;4896243;29;20035;-50
2021/12/05 00:52:32;;;;;;;14.30;7.72;;;;;;;7.68;81.53;99199.03;4895556;29;20039;-49
2021/12/05 00:57:57;;;;;;;8.98;6.22;;;;;;;7.80;81.12;99194.78;4895812;29;20047;-52
2021/12/05 01:03:30;;;;;;;7.15;5.28;;;;;;;7.64;78.89;99196.78;4894985;29;20115;-48
2021/12/05 01:06:33;;;;;;;6.07;4.45;;;;;;;7.27;79.83;99195.38;4895590;29;20036;-50
2021/12/05 01:14:11;;;;;;;8.98;4.68;;;;;;;7.02;80.88;99203.75;4894905;29;20028;-50
2021/12/05 01:16:37;;;;;;;6.80;4.47;;;;;;;6.85;82.06;99197.97;4895106;29;20397;-49
2021/12/05 01:19:04;;;;;;;7.82;4.95;;;;;;;7.02;81.88;99201.13;4894895;29;20036;-49
2021/12/05 01:21:31;;;;;;;7.78;4.95;;;;;;;7.51;80.32;99201.22;4894967;29;20038;-49
2021/12/05 01:24:13;;;;;;;8.88;4.45;;;;;;;7.23;79.89;99194.97;4894761;29;20029;-49
2021/12/05 01:32:08;;;;;;;7.55;4.70;;;;;;;7.19;80.38;99203.47;4876132;29;20044;-50
2021/12/05 01:37:27;;;;;;;9.00;4.90;;;;;;;7.12;80.45;99194.66;4894742;29;20037;-50
2021/12/05 01:40:21;;;;;;;7.80;5.47;;;;;;;7.19;81.49;99193.69;4880498;29;20121;-53
2021/12/05 01:56:53;;;;;;;8.93;5.47;;;;;;;7.32;80.15;99182.38;4893790;29;20048;-50
2021/12/05 01:59:39;;;;;;;7.72;4.93;;;;;;;7.14;80.43;99176.75;4894810;29;20145;-51
2021/12/05 02:43:08;;;;;;;8.32;5.80;;;;;;;7.04;81.13;99148.84;4897667;29;20040;-51
2021/12/05 02:45:36;;;;;;;11.20;6.60;;;;;;;7.11;81.43;99153.34;4882536;29;20107;-49
2021/12/05 02:48:01;;;;;;;10.80;6.60;;;;;;;7.44;81.63;99149.03;4897708;29;20413;-49
2021/12/05 02:50:29;;;;;;;9.23;6.18;;;;;;;7.68;79.67;99144.22;4897816;29;20028;-49
2021/12/05 02:52:59;;;;;;;9.23;5.90;;;;;;;7.14;80.54;99142.38;4897374;29;20061;-50
2021/12/05 02:55:35;;;;;;;8.68;6.30;;;;;;;7.14;80.88;99143.19;4896964;29;20128;-49
2021/12/05 02:58:13;;;;;;;10.48;6.15;;;;;;;7.10;81.00;99141.13;4897093;29;20028;-49
2021/12/05 03:00:43;;;;;;;9.93;6.60;;;;;;;6.99;81.41;99134.56;4896656;29;20035;-49
2021/12/05 03:03:18;;;;;;;12.07;6.85;;;;;;;6.93;81.59;99133.53;4897263;29;20024;-52
2021/12/05 03:05:51;;;;;;;10.45;6.63;;;;;;;7.04;82.27;99130.34;4897394;29;20056;-50
2021/12/05 03:08:17;;;;;;;10.95;7.28;;;;;;;7.81;79.09;99138.97;4897222;29;20032;-50
2021/12/05 03:10:43;;;;;;;11.27;6.90;;;;;;;7.49;80.03;99142.34;4896953;29;20059;-49
2021/12/05 03:13:08;;;;;;;10.65;6.93;;;;;;;7.18;80.86;99149.72;4897327;29;20035;-50
2021/12/05 03:15:34;;;;;;;10.95;6.45;;;;;;;7.08;80.90;99146.59;4896866;29;20054;-52
2021/12/05 03:17:59;;;;;;;16.42;7.53;;;;;;;6.98;81.76;99149.59;4879911;29;20032;-50
2021/12/05 03:20:25;;;;;;;13.20;7.43;;;;;;;7.37;81.01;99150.03;4896926;29;20028;-51
2021/12/05 03:22:50;;;;;;;13.68;7.82;;;;;;;7.45;79.57;99149.84;4896848;29;20091;-49
2021/12/05 03:25:16;;;;;;;15.23;8.93;;;;;;;7.77;79.96;99153.63;4896854;29;20068;-49
2021/12/05 03:27:42;;;;;;;15.55;8.88;;;;;;;7.93;78.13;99136.53;4896746;29;20032;-49
2021/12/05 03:30:09;;;;;;;18.88;8.85;;;;;;;7.63;79.41;99141.34;4897069;29;20035;-49
2021/12/05 03:32:35;;;;;;;14.25;8.32;;;;;;;7.35;79.33;99139.63;4897392;29;20096;-50
2021/12/05 03:35:00;;;;;;;13.88;7.78;;;;;;;7.22;79.65;99136.94;4896672;29;20509;-49
2021/12/05 03:37:26;;;;;;;16.17;8.02;;;;;;;7.14;81.06;99143.19;4897207;29;20462;-49
2021/12/05 03:39:51;;;;;;;16.88;8.75;;;;;;;7.13;82.14;99138.91;4896792;29;20029;-49
2021/12/05 03:42:17;;;;;;;16.45;9.38;;;;;;;7.95;79.59;99142.47;4897056;29;20040;-51
2021/12/05 03:44:42;;;;;;;18.63;9.02;;;;;;;7.51;80.38;99142.94;4897301;29;20025;-48
2021/12/05 03:47:08;;;;;;;18.33;10.38;;;;;;;7.16;80.94;99138.53;4896971;29;20143;-49
2021/12/05 03:49:34;;;;;;;18.92;9.93;;;;;;;7.27;80.40;99144.25;4896905;29;20044;-49
2021/12/05 03:52:02;;;;;;;20.88;10.45;;;;;;;7.13;81.91;99146.84;4897174;29;20454;-48
2021/12/05 03:54:28;;;;;;;23.50;11.27;;;;;;;6.90;81.71;99144.47;4896898;29;20033;-50
2021/12/05 03:56:53;;;;;;;23.05;11.68;;;;;;;7.10;83.51;99135.84;4896989;29;20036;-48
2021/12/05 03:59:19;;;;;;;21.48;10.18;;;;;;;7.78;82.02;99155.25;4896983;29;20103;-40
2021/12/05 04:01:45;;;;;;;16.20;7.78;;;;;;;7.32;80.11;99152.44;4896570;29;20028;-38
2021/12/05 04:04:11;;;;;;;17.38;8.70;;;;;;;7.28;80.85;99161.78;4896677;29;20029;-39
2021/12/05 04:06:37;;;;;;;18.95;8.30;;;;;;;7.08;81.58;99157.19;4896801;29;20180;-38
2021/12/05 04:09:05;;;;;;;18.20;7.97;;;;;;;7.22;81.67;99166.03;4897009;29;20020;-38
2021/12/05 04:11:36;;;;;;;20.38;7.63;;;;;;;7.19;81.57;99166.41;4896714;29;20087;-38
2021/12/05 04:14:05;;;;;;;20.10;7.93;;;;;;;6.98;84.48;99185.84;4896518;29;20037;-39
2021/12/05 04:16:31;;;;;;;24.00;7.85;;;;;;;7.84;80.70;99180.13;4896626;29;20032;-38
2021/12/05 04:18:57;;;;;;;20.52;7.75;;;;;;;7.59;79.84;99177.19;4896235;29;20096;-39
2021/12/05 04:21:22;;;;;;;23.60;9.18;;;;;;;7.30;81.19;99179.09;4894938;29;20052;-39
2021/12/05 04:23:48;;;;;;;26.10;9.68;;;;;;;7.30;81.58;99189.69;4896271;29;20028;-39
2021/12/05 04:26:14;;;;;;;24.73;10.35;;;;;;;7.13;82.31;99197.13;4895886;29;20036;-39
2021/12/05 04:28:39;;;;;;;26.55;10.18;;;;;;;7.02;83.03;99198.47;4895196;29;20032;-39
2021/12/05 04:31:08;;;;;;;25.58;9.93;;;;;;;7.96;80.36;99205.03;4896220;29;20076;-39
2021/12/05 04:33:34;;;;;;;30.00;10.98;;;;;;;7.90;78.97;99205.00;4894386;29;20100;-38
2021/12/05 04:35:59;;;;;;;25.02;9.60;;;;;;;7.34;80.22;99195.41;4860473;29;20585;-39
2021/12/05 04:38:26;;;;;;;26.08;10.07;;;;;;;7.04;82.33;99185.06;4877291;29;20169;-39
2021/12/05 04:40:51;;;;;;;27.27;9.52;;;;;;;6.91;83.15;99180.50;4876964;29;20092;-39
2021/12/05 04:43:17;;;;;;;29.80;9.82;;;;;;;6.86;83.13;99180.28;4877406;29;20044;-39
2021/12/05 04:45:42;;;;;;;23.40;8.73;;;;;;;6.92;83.06;99183.97;4895540;29;20036;-39
2021/12/05 04:48:08;;;;;;;25.85;8.68;;;;;;;7.03;84.14;99194.03;4878739;29;20397;-39
2021/12/05 04:50:35;;;;;;;26.58;8.80;;;;;;;7.61;81.56;99199.00;4895466;29;20033;-39
2021/12/05 04:53:00;;;;;;;21.08;7.82;;;;;;;7.21;81.13;99188.22;4895578;29;20032;-39
2021/12/05 04:55:26;;;;;;;20.48;8.15;;;;;;;7.15;81.74;99187.16;4895463;29;20033;-39
2021/12/05 04:57:52;;;;;;;25.63;8.40;;;;;;;7.05;81.87;99189.34;4895132;29;20100;-39
2021/12/05 05:00:28;;;;;;;23.42;8.05;;;;;;;6.88;82.68;99204.69;4895377;29;20043;-39
2021/12/05 05:02:54;;;;;;;22.77;8.25;;;;;;;6.88;83.38;99201.25;4895225;29;20062;-39
2021/12/05 05:05:20;;;;;;;28.33;8.57;;;;;;;7.26;83.31;99200.88;4895423;29;20036;-39
2021/12/05 05:07:45;;;;;;;24.73;8.50;;;;;;;7.69;81.56;99205.94;4895332;29;20037;-39
2021/12/05 05:10:13;;;;;;;22.20;7.88;;;;;;;7.47;80.91;99214.00;4895566;29;20120;-39
2021/12/05 05:12:39;;;;;;;16.35;7.10;;;;;;;7.10;81.45;99218.69;4895732;29;20040;-39
2021/12/05 05:15:05;;;;;;;22.55;7.40;;;;;;;7.17;81.84;99216.09;4895239;29;20037;-39
2021/12/05 05:17:30;;;;;;;22.95;7.97;;;;;;;7.18;81.61;99221.19;4895671;29;20048;-40
2021/12/05 05:20:01;;;;;;;27.63;8.55;;;;;;;7.12;82.25;99223.78;4895302;29;20409;-38
2021/12/05 05:22:45;;;;;;;26.77;8.77;;;;;;;8.02;79.24;99229.94;4895498;29;20037;-38
2021/12/05 05:44:36;;;;;;;17.85;8.00;;;;;;;7.33;80.41;99234.31;4895497;29;20065;-39
2021/12/05 05:52:13;;;;;;;17.05;6.82;;;;;;;7.09;82.11;99219.69;4895255;29;20112;-38
2021/12/05 05:54:40;;;;;;;15.73;6.97;;;;;;;7.07;81.09;99216.44;4877999;29;20025;-39
2021/12/05 06:00:11;;;;;;;58.00;30.67;;;;;;;7.39;81.95;99240.66;4885888;29;20088;-39
2021/12/05 06:05:21;;;;;;;18.65;7.00;;;;;;;7.60;79.47;99239.75;4894192;29;20063;-39
2021/12/05 06:07:47;;;;;;;20.25;6.88;;;;;;;7.34;79.49;99243.06;4877681;29;20440;-38
2021/12/05 06:10:17;;;;;;;24.77;7.97;;;;;;;7.23;80.37;99242.59;4862085;29;20167;-38
2021/12/05 06:12:43;;;;;;;20.88;8.05;;;;;;;6.95;80.60;99234.66;4894618;29;20210;-37
2021/12/05 06:15:10;;;;;;;31.13;9.35;;;;;;;6.82;83.11;99250.44;4894140;29;20514;-38
2021/12/05 06:17:36;;;;;;;22.55;9.25;;;;;;;7.58;81.01;99247.06;4894354;29;20123;-38
2021/12/05 06:20:06;;;;;;;26.15;8.18;;;;;;;7.64;79.14;99246.28;4894295;29;20027;-38
2021/12/05 06:22:31;;;;;;;26.42;9.32;;;;;;;7.41;80.52;99257.97;4894443;29;20465;-38
2021/12/05 06:24:57;;;;;;;27.83;9.43;;;;;;;7.17;81.66;99264.53;4894548;29;20028;-39
2021/12/05 06:27:23;;;;;;;28.15;9.20;;;;;;;7.16;81.50;99262.06;4894673;29;20039;-39
2021/12/05 06:29:55;;;;;;;29.25;9.13;;;;;;;7.18;81.77;99266.19;4894599;29;20044;-39
2021/12/05 06:38:06;;;;;;;28.30;9.35;;;;;;;7.52;80.11;99269.00;4894766;29;20039;-38
2021/12/05 06:41:00;;;;;;;27.48;8.60;;;;;;;7.10;81.83;99278.72;4894300;29;20446;-39
2021/12/05 06:46:04;;;;;;;29.60;8.30;;;;;;;7.10;81.89;99273.44;4894692;29;20047;-38
2021/12/05 06:48:30;;;;;;;22.67;8.68;;;;;;;7.71;80.84;99276.28;4894169;29;20058;-38
2021/12/05 06:50:55;;;;;;;19.20;7.40;;;;;;;7.91;80.03;99276.34;4895305;29;20426;-38
2021/12/05 06:53:21;;;;;;;20.30;7.90;;;;;;;7.51;80.31;99275.34;4881359;29;20538;-39
2021/12/05 06:55:46;;;;;;;16.40;7.30;;;;;;;7.44;80.81;99292.00;4898427;29;20123;-39
2021/12/05 06:58:12;;;;;;;22.20;8.13;;;;;;;7.29;80.71;99293.09;4897807;29;20032;-39
2021/12/05 07:00:37;;;;;;;25.77;8.40;;;;;;;7.13;81.95;99296.88;4897844;29;20043;-38
2021/12/05 07:03:03;;;;;;;16.58;7.38;;;;;;;7.12;81.99;99287.28;4897554;29;20485;-39
2021/12/05 07:07:54;;;;;;;22.92;7.55;;;;;;;8.07;78.97;99288.44;4897780;29;20040;-39
2021/12/05 07:10:20;;;;;;;22.15;7.75;;;;;;;7.95;78.92;99295.31;4897144;29;20073;-39
2021/12/05 07:15:16;;;;;;;22.02;8.05;;;;;;;7.42;80.17;99293.19;4896964;29;20032;-39
2021/12/05 07:25:34;;;;;;;27.67;10.07;;;;;;;8.01;78.96;99282.13;4896925;29;20425;-53
2021/12/05 07:44:05;;;;;;;43.78;15.30;;;;;;;7.93;80.34;99276.16;4895555;29;20047;-54
2021/12/05 07:46:31;;;;;;;41.50;14.50;;;;;;;7.89;79.81;99267.78;4895291;29;20096;-52
2021/12/05 07:48:56;;;;;;;42.38;15.50;;;;;;;7.53;80.54;99268.03;4895355;29;20036;-51
2021/12/05 07:51:26;;;;;;;41.17;15.73;;;;;;;7.71;80.63;99270.97;4895383;29;20037;-53
2021/12/05 07:54:04;;;;;;;37.55;15.02;;;;;;;7.53;80.87;99276.78;4893891;29;20043;-52
2021/12/05 07:56:53;;;;;;;41.92;14.98;;;;;;;7.52;81.00;99269.84;4895545;29;20064;-49
2021/12/05 08:15:47;;;;;;;47.80;16.52;;;;;;;8.41;79.00;99286.72;4866468;29;20139;-38
2021/12/05 08:18:13;;;;;;;43.92;15.57;;;;;;;8.67;76.70;99290.47;4877510;29;20032;-38
2021/12/05 08:20:43;;;;;;;47.88;16.02;;;;;;;8.67;76.43;99274.56;4884478;29;20039;-40
2021/12/05 08:23:10;;;;;;;50.45;16.38;;;;;;;9.12;78.07;99264.13;4886444;29;20025;-38
2021/12/05 08:25:38;;;;;;;45.05;16.10;;;;;;;8.52;76.92;99274.75;4883799;29;20112;-38
2021/12/05 08:30:44;;;;;;;46.58;15.70;;;;;;;8.07;78.81;99269.88;4869660;29;20028;-38
2021/12/05 08:36:29;;;;;;;57.97;18.23;;;;;;;8.68;80.63;99273.53;4881965;29;20132;-40
2021/12/05 08:44:28;;;;;;;49.90;14.82;;;;;;;8.30;79.02;99266.06;4887107;29;20107;-38
2021/12/05 09:30:34;;;;;;;44.45;18.20;;;;;;;8.50;78.74;99237.00;4893783;29;20044;-52
2021/12/05 09:52:30;;;;;;;55.95;23.80;;;;;;;9.92;74.11;99218.78;4873994;29;20055;-38
2021/12/05 10:06:45;;;;;;;58.95;28.00;;;;;;;9.86;73.91;99199.19;4875946;29;20039;-39
2021/12/05 10:08:43;;;;;;;57.00;24.33;;;;;;;9.55;73.80;99166.19;4875619;29;20109;-39
2021/12/05 10:14:13;;;;;;;58.80;24.75;;;;;;;9.90;73.73;99180.94;4876088;29;20179;-41
2021/12/05 10:17:26;;;;;;;53.83;23.55;;;;;;;9.82;74.92;99186.53;4876177;29;20386;-39
2021/12/05 10:38:29;;;;;;;44.85;21.05;;;;;;;10.33;70.98;99177.66;4883692;29;20033;-51
2021/12/05 10:43:40;;;;;;;44.95;19.20;;;;;;;10.18;72.59;99168.13;4886230;29;20477;-52
2021/12/05 10:46:08;;;;;;;40.70;19.48;;;;;;;10.32;71.30;99166.22;4872020;29;20025;-52
2021/12/05 10:49:04;;;;;;;41.42;18.45;;;;;;;10.03;73.63;99161.47;4869167;29;20672;-53
2021/12/05 10:51:49;;;;;;;32.53;16.23;;;;;;;10.15;70.94;99149.13;4889274;29;20032;-49
2021/12/05 10:54:19;;;;;;;31.40;16.60;;;;;;;10.63;70.40;99145.09;4886846;29;20379;-49
2021/12/05 10:56:51;;;;;;;32.50;15.65;;;;;;;10.34;70.59;99128.78;4885228;29;20514;-49
2021/12/05 10:59:23;;;;;;;40.47;15.75;;;;;;;10.07;70.84;99123.63;4883697;29;20059;-49
2021/12/05 11:01:59;;;;;;;33.95;15.63;;;;;;;10.28;70.12;99126.94;4886111;29;20091;-38
2021/12/05 11:04:29;;;;;;;32.65;16.42;;;;;;;9.95;70.99;99126.13;4885687;29;20398;-38
2021/12/05 11:06:59;;;;;;;33.53;16.52;;;;;;;10.05;71.97;99116.88;4897108;29;20031;-38
2021/12/05 11:09:28;;;;;;;;;;;;;;;10.57;70.63;99120.19;4898172;29;20032;-39
2021/12/05 11:12:03;;;;;;;36.35;16.70;;;;;;;11.07;68.04;99111.28;4897837;29;20407;-39
2021/12/05 11:14:37;;;;;;;35.33;17.50;;;;;;;10.60;69.90;99106.44;4897833;29;20060;-40
2021/12/05 11:17:06;;;;;;;34.20;18.75;;;;;;;10.47;70.19;99103.88;4897668;29;20028;-38
2021/12/05 11:19:45;;;;;;;34.42;18.35;;;;;;;10.53;70.62;99105.69;4897596;29;20025;-38
2021/12/05 11:22:16;;;;;;;41.33;20.95;;;;;;;10.66;70.23;99099.41;4897795;29;20064;-39
2021/12/05 11:24:54;;;;;;;38.33;20.40;;;;;;;10.64;70.09;99094.34;4897629;29;20398;-38
2021/12/05 11:27:21;;;;;;;39.78;18.73;;;;;;;10.63;70.05;99092.69;4897506;29;20100;-50
2021/12/05 11:29:52;;;;;;;34.83;18.65;;;;;;;10.68;69.38;99100.84;4897474;29;20020;-51
2021/12/05 11:32:28;;;;;;;42.05;20.55;;;;;;;10.42;69.77;99101.91;4897236;29;20052;-52
2021/12/05 11:34:54;;;;;;;38.05;19.30;;;;;;;10.20;71.00;99096.09;4895424;29;20049;-51
2021/12/05 11:37:19;;;;;;;38.85;20.65;;;;;;;10.61;69.43;99104.59;4887687;29;20405;-52
2021/12/05 11:39:46;;;;;;;44.55;20.45;;;;;;;10.44;69.90;99107.81;4879736;29;20080;-50
2021/12/05 11:42:17;;;;;;;40.75;20.85;;;;;;;10.40;71.52;99109.28;4890793;29;20579;-50
2021/12/05 11:44:44;;;;;;;44.20;20.58;;;;;;;10.48;70.53;99103.69;4888913;29;20032;-49
2021/12/05 11:47:12;;;;;;;43.25;21.38;;;;;;;10.57;69.80;99106.88;4896719;29;20055;-48
2021/12/05 11:49:37;;;;;;;44.97;21.42;;;;;;;10.81;68.00;99099.88;4895475;29;20036;-51
2021/12/05 11:52:03;;;;;;;43.08;21.48;;;;;;;10.67;68.70;99098.41;4895950;29;20043;-49
2021/12/05 11:54:40;;;;;;;43.78;21.73;;;;;;;10.63;69.53;99097.22;4896062;29;20343;-54
2021/12/05 11:57:17;;;;;;;43.50;21.67;;;;;;;10.00;71.70;99093.59;4894913;29;20024;-51
2021/12/05 11:59:46;;;;;;;43.40;22.80;;;;;;;10.18;70.66;99077.72;4895332;29;20414;-50
2021/12/05 12:02:11;;;;;;;43.90;22.23;;;;;;;10.44;69.44;99078.53;4895293;29;20025;-50
2021/12/05 12:04:59;;;;;;;41.17;22.00;;;;;;;10.33;69.80;99084.56;4895083;29;20028;-50
2021/12/05 12:07:40;;;;;;;41.13;21.02;;;;;;;10.49;69.23;99073.41;4878189;29;20033;-52
2021/12/05 12:10:11;;;;;;;;;;;;;;;10.38;70.30;99074.09;4895392;29;20104;-50
2021/12/05 12:12:41;;;;;;;39.25;21.45;;;;;;;10.47;69.66;99085.28;4895525;29;20025;-49
2021/12/05 12:15:07;;;;;;;42.92;21.05;;;;;;;10.69;70.02;99075.03;4896534;29;20028;-50
2021/12/05 12:17:33;;;;;;;43.58;20.20;;;;;;;10.56;69.20;99073.31;4897252;29;20036;-50
2021/12/05 12:19:58;;;;;;;41.10;21.27;;;;;;;10.74;69.24;99069.88;4896911;29;20478;-52
2021/12/05 12:22:26;;;;;;;40.63;20.05;;;;;;;10.81;69.48;99073.25;4896797;29;20032;-50
2021/12/05 12:24:54;;;;;;;39.00;21.48;;;;;;;10.93;68.53;99065.38;4896332;29;20020;-51
2021/12/05 12:27:20;;;;;;;40.92;21.40;;;;;;;10.51;69.15;99059.88;4896247;29;20373;-51
2021/12/05 12:29:45;;;;;;;42.70;21.77;;;;;;;10.26;70.84;99063.34;4896403;29;20040;-39
2021/12/05 12:32:15;;;;;;;42.42;21.80;;;;;;;10.07;71.33;99054.50;4879564;29;20101;-39
2021/12/05 12:34:40;;;;;;;37.80;19.33;;;;;;;10.46;69.96;99054.41;4876152;29;20108;-39
2021/12/05 12:37:07;;;;;;;37.67;20.13;;;;;;;10.56;69.58;99047.50;4877492;29;20112;-38
2021/12/05 12:39:41;;;;;;;33.55;18.35;;;;;;;10.33;69.73;99047.34;4878025;29;20032;-38
2021/12/05 12:42:16;;;;;;;36.25;18.50;;;;;;;10.34;70.24;99049.00;4877840;29;20029;-38
2021/12/05 12:45:21;;;;;;;33.42;17.10;;;;;;;10.16;70.97;99042.53;4877112;29;20041;-38
2021/12/05 12:47:54;;;;;;;34.15;17.38;;;;;;;10.35;69.50;99053.25;4874256;29;20037;-39
2021/12/05 12:50:29;;;;;;;35.55;17.30;;;;;;;10.58;69.67;99057.94;4859256;29;20033;-39
2021/12/05 12:53:16;;;;;;;35.65;18.92;;;;;;;10.63;69.87;99054.63;4875920;29;20142;-38
2021/12/05 12:55:55;;;;;;;34.85;17.35;;;;;;;10.36;69.88;99034.44;4877299;29;20056;-38
2021/12/05 12:58:46;;;;;;;38.08;17.13;;;;;;;10.30;70.50;99056.59;4877382;29;20041;-38
2021/12/05 13:04:37;;;;;;;36.83;15.95;;;;;;;10.25;70.36;99056.38;4876481;29;20080;-39
2021/12/05 13:12:33;;;;;;;31.98;15.80;;;;;;;10.41;69.19;99052.38;4876468;29;20573;-39
2021/12/05 13:15:06;;;;;;;27.08;13.70;;;;;;;10.32;70.69;99057.19;4858004;29;20048;-38
2021/12/05 13:17:38;;;;;;;26.58;14.43;;;;;;;10.68;69.39;99065.41;4858015;29;20030;-39
2021/12/05 13:20:04;;;;;;;28.35;14.77;;;;;;;10.71;69.53;99062.31;4857708;29;20086;-39
2021/12/05 13:22:29;;;;;;;28.73;14.52;;;;;;;10.59;69.90;99064.91;4857332;29;20504;-39
2021/12/05 13:25:07;;;;;;;34.00;16.45;;;;;;;10.48;68.84;99062.97;4857887;29;20030;-38
2021/12/05 13:27:32;;;;;;;37.13;16.83;;;;;;;10.40;70.13;99055.28;4864169;29;20351;-40
2021/12/05 13:29:58;;;;;;;32.78;17.48;;;;;;;10.44;69.77;99051.94;4876266;29;20033;-39
2021/12/05 13:32:27;;;;;;;33.42;17.23;;;;;;;10.30;69.46;99045.09;4876540;29;20041;-38
2021/12/05 13:35:00;;;;;;;34.70;18.38;;;;;;;10.37;69.77;99041.34;4881772;29;20053;-38
2021/12/05 13:37:47;;;;;;;32.78;18.02;;;;;;;10.31;69.85;99036.13;4895392;29;20043;-38
2021/12/05 13:40:17;;;;;;;36.60;19.92;;;;;;;10.10;70.59;99045.28;4895333;29;20032;-39
2021/12/05 13:42:49;;;;;;;36.58;20.02;;;;;;;10.24;71.07;99043.31;4895229;29;20039;-39
2021/12/05 13:45:19;;;;;;;39.22;20.30;;;;;;;10.28;70.20;99061.28;4895276;29;20043;-39
2021/12/05 13:47:51;;;;;;;35.13;18.65;;;;;;;10.31;71.27;99055.53;4894953;29;20032;-39
2021/12/05 13:50:16;;;;;;;36.90;18.33;;;;;;;10.37;70.28;99048.53;4893069;29;20036;-40
2021/12/05 13:52:42;;;;;;;33.78;18.30;;;;;;;10.42;70.87;99058.53;4894886;29;20418;-39
2021/12/05 13:55:45;;;;;;;32.40;17.27;;;;;;;10.29;70.68;99060.22;4894869;29;20055;-40
2021/12/05 13:58:16;;;;;;;34.90;18.40;;;;;;;10.02;71.83;99056.97;4895304;29;20069;-39
2021/12/05 14:01:10;;;;;;;33.45;17.55;;;;;;;9.71;73.36;99053.31;4897790;29;20029;-40
2021/12/05 14:03:45;;;;;;;37.92;16.77;;;;;;;9.71;72.94;99042.69;4899516;29;20036;-38
2021/12/05 14:06:43;;;;;;;31.90;16.50;;;;;;;9.85;73.09;99042.59;4899231;29;20032;-41
2021/12/05 14:09:22;;;;;;;32.45;16.05;;;;;;;9.74;73.34;99049.41;4885627;29;20037;-39
2021/12/05 14:11:55;;;;;;;31.48;15.55;;;;;;;10.48;71.39;99055.78;4899064;29;20036;-38
2021/12/05 14:14:59;;;;;;;33.90;16.13;;;;;;;10.17;72.02;99059.31;4881902;29;20035;-39
2021/12/05 14:17:24;;;;;;;31.45;16.05;;;;;;;9.88;72.21;99063.41;4898936;29;20423;-39
2021/12/05 14:19:51;;;;;;;29.90;15.23;;;;;;;9.78;71.93;99056.72;4898563;29;20040;-39
2021/12/05 14:22:18;;;;;;;31.35;15.38;;;;;;;9.83;72.46;99055.28;4892089;29;20033;-39
2021/12/05 14:24:46;;;;;;;32.58;15.70;;;;;;;9.47;73.91;99056.75;4883553;29;20117;-39
2021/12/05 14:27:13;;;;;;;34.75;16.98;;;;;;;9.48;73.96;99056.53;4883739;29;20024;-38
2021/12/05 14:29:40;;;;;;;32.20;16.35;;;;;;;9.58;73.65;99058.72;4899116;29;20112;-43
2021/12/05 14:32:12;;;;;;;31.08;16.77;;;;;;;9.44;75.46;99063.28;4898707;29;20040;-50
2021/12/05 14:34:38;;;;;;;37.58;17.10;;;;;;;10.08;73.56;99060.63;4897580;29;20052;-50
2021/12/05 14:37:15;;;;;;;39.88;17.42;;;;;;;9.60;73.29;99061.97;4898024;29;20111;-38
2021/12/05 14:39:42;;;;;;;45.67;23.33;;;;;;;9.37;74.21;99059.84;4897968;29;20035;-38
2021/12/05 14:42:15;;;;;;;35.67;18.33;;;;;;;9.18;75.34;99058.91;4897373;29;20111;-38
2021/12/05 14:44:41;;;;;;;33.90;18.27;;;;;;;9.08;76.00;99066.50;4897988;29;20035;-38
2021/12/05 14:47:11;;;;;;;37.67;18.92;;;;;;;9.08;77.57;99059.38;4879549;29;20032;-38
2021/12/05 14:49:49;;;;;;;38.60;19.83;;;;;;;9.65;75.92;99063.97;4896881;29;20135;-38
2021/12/05 14:52:19;;;;;;;35.85;18.08;;;;;;;9.45;74.93;99061.44;4895787;29;20502;-38
2021/12/05 14:54:45;;;;;;;37.67;19.25;;;;;;;9.26;75.68;99066.63;4894953;29;20112;-49
2021/12/05 14:57:19;;;;;;;40.17;19.50;;;;;;;9.16;75.80;99066.28;4895289;29;20036;-49
2021/12/05 14:59:45;;;;;;;45.75;23.88;;;;;;;9.26;76.12;99065.84;4895556;29;20433;-49
2021/12/05 15:02:11;;;;;;;45.25;24.10;;;;;;;9.44;75.94;99065.94;4896023;29;20096;-52
2021/12/05 15:04:43;;;;;;;43.70;22.42;;;;;;;9.22;76.15;99077.91;4896058;29;20033;-51
2021/12/05 15:07:08;;;;;;;44.35;21.15;;;;;;;9.19;76.74;99071.16;4896227;29;20040;-49
2021/12/05 15:09:42;;;;;;;42.92;22.70;;;;;;;9.09;77.18;99082.22;4896002;29;20597;-50
2021/12/05 15:12:15;;;;;;;47.42;23.60;;;;;;;9.68;76.06;99087.47;4895323;29;20465;-51
2021/12/05 15:14:45;;;;;;;39.20;21.42;;;;;;;9.76;75.34;99090.69;4898084;29;20359;-53
2021/12/05 15:17:13;;;;;;;41.83;21.45;;;;;;;9.79;73.87;99090.25;4882864;29;20127;-52
2021/12/05 15:19:40;;;;;;;39.47;20.75;;;;;;;9.50;74.49;99099.63;4877271;29;20100;-49
2021/12/05 15:22:07;;;;;;;39.67;20.95;;;;;;;9.33;75.76;99083.38;4886447;29;20032;-52
2021/12/05 15:24:32;;;;;;;44.50;22.42;;;;;;;9.32;76.05;99091.53;4897993;29;20047;-49
2021/12/05 15:26:58;;;;;;;49.30;24.27;;;;;;;9.19;77.74;99093.22;4873364;29;20469;-48
2021/12/05 15:29:24;;;;;;;49.00;25.55;;;;;;;9.72;74.69;99093.97;4896598;29;20040;-50
2021/12/05 15:31:49;;;;;;;44.92;23.38;;;;;;;9.68;74.98;99098.91;4893432;29;20040;-39
2021/12/05 15:34:20;;;;;;;44.85;23.02;;;;;;;9.31;76.01;99097.84;4886296;29;20134;-39
2021/12/05 15:36:45;;;;;;;44.92;21.75;;;;;;;9.27;75.55;99086.88;4878736;29;20029;-39
2021/12/05 15:39:13;;;;;;;44.60;23.25;;;;;;;9.05;76.68;99094.28;4878581;29;20437;-48
2021/12/05 15:41:38;;;;;;;40.78;21.70;;;;;;;9.05;77.10;99086.31;4861121;29;20374;-49
2021/12/05 15:44:04;;;;;;;41.65;22.23;;;;;;;8.92;78.32;99081.06;4877920;29;20058;-50
2021/12/05 15:46:29;;;;;;;39.97;21.30;;;;;;;8.99;79.56;99085.31;4877426;29;20037;-50
2021/12/05 15:48:57;;;;;;;39.15;21.38;;;;;;;9.79;76.14;99102.75;4877593;29;20530;-47
2021/12/05 15:51:22;;;;;;;37.92;19.80;;;;;;;9.61;77.05;99102.63;4877428;29;20037;-50
2021/12/05 15:53:48;;;;;;;35.83;19.35;;;;;;;9.20;77.13;99102.00;4875935;29;20047;-50
2021/12/05 15:56:15;;;;;;;39.03;20.13;;;;;;;9.05;77.80;99096.13;4877388;29;20092;-49
2021/12/05 15:58:52;;;;;;;35.40;21.20;;;;;;;8.86;78.46;99093.31;4877177;29;20029;-49
2021/12/05 16:01:22;;;;;;;36.17;19.65;;;;;;;8.72;79.77;99097.00;4876145;29;20386;-50
2021/12/05 16:04:02;;;;;;;37.25;19.83;;;;;;;8.75;79.40;99101.91;4877695;29;20025;-50
2021/12/05 16:06:36;;;;;;;41.13;21.85;;;;;;;8.98;80.08;99101.44;4877706;29;20153;-51
2021/12/05 16:09:14;;;;;;;42.42;24.13;;;;;;;9.59;78.88;99109.00;4877590;29;20407;-49
2021/12/05 16:11:39;;;;;;;43.92;22.42;;;;;;;9.36;77.92;99108.66;4877848;29;20025;-50
2021/12/05 16:14:04;;;;;;;35.75;19.75;;;;;;;8.88;78.07;99104.53;4889818;29;20052;-51
2021/12/05 16:16:30;;;;;;;39.10;21.88;;;;;;;8.71;79.63;99111.31;4879665;29;20084;-51
2021/12/05 16:18:57;;;;;;;34.38;18.95;;;;;;;8.65;80.22;99120.91;4896191;29;20028;-50
2021/12/05 16:21:33;;;;;;;32.80;18.33;;;;;;;8.70;79.69;99104.38;4896154;29;20108;-49
2021/12/05 16:24:19;;;;;;;31.38;18.02;;;;;;;9.22;78.25;99101.78;4878202;29;20457;-50
2021/12/05 16:26:46;;;;;;;30.50;17.25;;;;;;;9.13;78.96;99101.19;4895652;29;20402;-52
2021/12/05 16:29:14;;;;;;;39.60;22.30;;;;;;;8.94;79.16;99108.19;4894181;29;20081;-49
2021/12/05 16:31:53;;;;;;;31.98;18.80;;;;;;;8.84;79.73;99103.31;4887076;29;20025;-52
2021/12/05 16:34:20;;;;;;;33.10;17.95;;;;;;;8.73;80.45;99117.22;4876630;29;20040;-53
2021/12/05 16:37:02;;;;;;;31.88;16.80;;;;;;;8.92;80.04;99107.59;4877071;29;20493;-52
2021/12/05 16:39:35;;;;;;;33.90;20.00;;;;;;;9.00;80.51;99115.31;4890795;29;20473;-52
2021/12/05 16:42:06;;;;;;;36.10;18.42;;;;;;;8.96;80.51;99122.06;4895759;29;20095;-52
2021/12/05 16:44:34;;;;;;;34.25;18.33;;;;;;;8.90;80.09;99125.56;4894505;29;20506;-52
2021/12/05 16:47:14;;;;;;;36.78;18.15;;;;;;;9.07;80.78;99128.59;4873305;29;20032;-52
2021/12/05 16:49:43;;;;;;;32.40;18.75;;;;;;;9.15;78.97;99117.72;4877197;29;20399;-50
2021/12/05 16:52:14;;;;;;;32.05;17.27;;;;;;;9.02;79.47;99115.13;4876673;29;20481;-52
2021/12/05 16:54:51;;;;;;;30.98;17.40;;;;;;;8.98;79.99;99117.38;4876487;29;20033;-50
2021/12/05 16:57:28;;;;;;;36.17;18.83;;;;;;;9.14;79.42;99113.47;4876348;29;20035;-52
2021/12/05 16:59:55;;;;;;;40.67;21.33;;;;;;;9.66;80.81;99116.91;4876621;29;20386;-50
2021/12/05 17:02:27;;;;;;;32.38;18.83;;;;;;;9.46;78.19;99109.06;4876567;29;20430;-50